createdAt,value
2022-10-09T00:01:25.152Z,59.41
2022-10-09T00:03:55.164Z,61.58
2022-10-09T00:06:26.511Z,66.59
2022-10-09T00:08:54.582Z,61.15
2022-10-09T00:11:26.137Z,54.77
2022-10-09T00:13:55.849Z,56.05
2022-10-09T00:16:25.729Z,58.01
2022-10-09T00:18:54.543Z,60.41
2022-10-09T00:21:27.128Z,61.76
2022-10-09T00:23:57.756Z,66.70
2022-10-09T00:26:26.331Z,61.42
2022-10-09T00:28:55.313Z,54.42
2022-10-09T00:31:24.088Z,54.79
2022-10-09T00:33:52.195Z,57.04
2022-10-09T00:36:23.643Z,59.06
2022-10-09T00:38:54.172Z,60.57
2022-10-09T00:41:30.747Z,61.91
2022-10-09T00:44:42.947Z,65.83
2022-10-09T00:47:20.851Z,56.86
2022-10-09T00:49:51.993Z,53.97
2022-10-09T00:52:21.804Z,56.57
2022-10-09T00:54:50.246Z,58.67
2022-10-09T00:57:18.682Z,60.13
2022-10-09T00:59:46.735Z,61.27
2022-10-09T01:02:14.753Z,65.94
2022-10-09T01:04:42.777Z,59.81
2022-10-09T01:07:42.899Z,53.78
2022-10-09T01:10:32.066Z,55.52
2022-10-09T01:13:32.878Z,58.14
2022-10-09T01:16:43.779Z,60.16
2022-10-09T01:19:35.814Z,61.27
2022-10-09T01:22:11.871Z,65.28
2022-10-09T01:24:45.268Z,58.13
2022-10-09T01:27:22.349Z,52.86
2022-10-09T01:29:56.976Z,54.74
2022-10-09T01:32:31.497Z,56.24
2022-10-09T01:35:02.026Z,57.64
2022-10-09T01:37:31.943Z,59.50
2022-10-09T01:40:01.857Z,60.55
2022-10-09T01:42:31.770Z,65.14
2022-10-09T01:44:59.846Z,59.64
2022-10-09T01:47:28.220Z,53.39
2022-10-09T01:49:59.671Z,54.23
2022-10-09T01:53:00.924Z,56.38
2022-10-09T01:55:35.137Z,57.83
2022-10-09T01:58:18.062Z,59.14
2022-10-09T02:00:54.318Z,60.44
2022-10-09T02:03:26.280Z,61.62
2022-10-09T02:05:55.918Z,66.24
2022-10-09T02:08:26.120Z,59.93
2022-10-09T02:10:59.401Z,53.31
2022-10-09T02:13:28.223Z,54.53
2022-10-09T02:15:59.181Z,57.07
2022-10-09T02:18:38.437Z,58.41
2022-10-09T02:21:15.446Z,59.89
2022-10-09T02:23:48.289Z,61.50
2022-10-09T02:26:16.709Z,64.08
2022-10-09T02:28:46.196Z,54.79
2022-10-09T02:31:27.033Z,53.80
2022-10-09T02:34:00.192Z,55.91
2022-10-09T02:36:29.475Z,57.67
2022-10-09T02:38:58.057Z,59.66
2022-10-09T02:41:27.047Z,60.59
2022-10-09T02:43:55.566Z,61.33
2022-10-09T02:46:23.756Z,65.45
2022-10-09T02:48:52.089Z,60.25
2022-10-09T02:51:20.257Z,52.72
2022-10-09T02:53:48.330Z,53.40
2022-10-09T02:56:16.402Z,55.78
2022-10-09T02:58:44.331Z,57.21
2022-10-09T03:01:12.646Z,59.17
2022-10-09T03:03:41.024Z,60.95
2022-10-09T03:06:10.430Z,61.66
2022-10-09T03:08:40.955Z,66.55
2022-10-09T03:13:55.735Z,53.52
2022-10-09T03:16:25.585Z,54.45
2022-10-09T03:18:54.625Z,56.96
2022-10-09T03:21:25.379Z,58.93
2022-10-09T03:23:53.842Z,60.23
2022-10-09T03:26:25.310Z,60.88
2022-10-09T03:28:55.222Z,66.02
2022-10-09T03:34:13.998Z,53.09
2022-10-09T03:36:42.477Z,54.69
2022-10-09T03:39:11.073Z,56.64
2022-10-09T03:41:39.134Z,58.45
2022-10-09T03:44:07.202Z,59.86
2022-10-09T03:46:35.658Z,60.66
2022-10-09T03:49:03.864Z,61.29
2022-10-09T03:51:31.931Z,65.95
2022-10-09T03:54:00.000Z,60.51
2022-10-09T03:56:28.174Z,53.07
2022-10-09T03:58:56.247Z,53.63
2022-10-09T04:01:24.402Z,55.74
2022-10-09T04:03:52.593Z,57.04
2022-10-09T04:06:20.562Z,58.74
2022-10-09T04:08:48.562Z,59.90
2022-10-09T04:11:16.607Z,61.09
2022-10-09T04:13:44.675Z,65.41
2022-10-09T04:16:13.046Z,59.93
2022-10-09T04:18:43.684Z,51.95
2022-10-09T04:21:13.303Z,52.58
2022-10-09T04:23:41.365Z,54.43
2022-10-09T04:26:12.199Z,56.41
2022-10-09T04:28:40.438Z,57.22
2022-10-09T04:31:08.688Z,59.23
2022-10-09T04:33:36.925Z,59.68
2022-10-09T04:36:05.201Z,60.82
2022-10-09T04:38:33.272Z,65.77
2022-10-09T04:41:04.497Z,59.97
2022-10-09T04:43:34.435Z,52.34
2022-10-09T04:46:07.478Z,53.27
2022-10-09T04:48:43.421Z,55.09
2022-10-09T04:51:12.576Z,57.05
2022-10-09T04:53:41.344Z,58.01
2022-10-09T04:56:15.372Z,59.94
2022-10-09T04:58:44.981Z,60.52
2022-10-09T05:01:17.020Z,65.04
2022-10-09T05:03:45.629Z,59.88
2022-10-09T05:06:14.599Z,52.54
2022-10-09T05:08:43.514Z,53.37
2022-10-09T05:11:14.658Z,55.30
2022-10-09T05:13:45.641Z,57.05
2022-10-09T05:16:17.420Z,58.43
2022-10-09T05:18:46.757Z,59.61
2022-10-09T05:21:15.501Z,59.88
2022-10-09T05:23:44.103Z,60.78
2022-10-09T05:26:15.783Z,61.81
2022-10-09T05:28:44.652Z,66.68
2022-10-09T05:31:22.364Z,60.59
2022-10-09T05:33:51.190Z,52.03
2022-10-09T05:36:20.045Z,52.61
2022-10-09T05:38:48.124Z,54.47
2022-10-09T05:41:18.136Z,56.69
2022-10-09T05:43:48.157Z,57.65
2022-10-09T05:46:20.480Z,58.81
2022-10-09T05:48:54.432Z,59.50
2022-10-09T05:51:26.908Z,60.32
2022-10-09T05:53:57.003Z,60.85
2022-10-09T05:56:30.219Z,66.18
2022-10-09T05:59:04.227Z,60.46
2022-10-09T06:01:36.259Z,52.26
2022-10-09T06:04:05.378Z,52.96
2022-10-09T06:06:37.249Z,54.85
2022-10-09T06:09:09.449Z,56.20
2022-10-09T06:11:39.434Z,57.53
2022-10-09T06:14:10.578Z,58.66
2022-10-09T06:16:41.451Z,59.28
2022-10-09T06:19:13.479Z,59.95
2022-10-09T06:21:42.165Z,60.58
2022-10-09T06:24:29.097Z,65.51
2022-10-09T06:26:58.585Z,60.02
2022-10-09T06:29:27.406Z,51.92
2022-10-09T06:31:55.518Z,52.78
2022-10-09T06:34:24.333Z,54.93
2022-10-09T06:36:52.715Z,56.61
2022-10-09T06:39:20.987Z,57.55
2022-10-09T06:41:49.368Z,60.13
2022-10-09T06:44:36.073Z,59.98
2022-10-09T06:47:04.051Z,63.03
2022-10-09T06:49:32.116Z,62.53
2022-10-09T06:52:00.186Z,53.58
2022-10-09T06:54:28.256Z,53.06
2022-10-09T06:56:56.226Z,55.21
2022-10-09T06:59:24.195Z,56.42
2022-10-09T07:01:52.284Z,57.14
2022-10-09T07:04:21.874Z,58.83
2022-10-09T07:06:49.946Z,59.67
2022-10-09T07:09:18.017Z,59.67
2022-10-09T07:11:49.504Z,60.33
2022-10-09T07:14:18.308Z,60.24
2022-10-09T07:16:48.561Z,60.14
2022-10-09T07:19:17.920Z,60.28
2022-10-09T07:21:48.413Z,60.58
2022-10-09T07:24:17.365Z,60.99
2022-10-09T07:26:47.111Z,66.53
2022-10-09T07:29:16.513Z,59.70
2022-10-09T07:31:45.214Z,53.09
2022-10-09T07:34:13.283Z,52.96
2022-10-09T07:36:41.344Z,54.75
2022-10-09T07:39:09.418Z,56.19
2022-10-09T07:41:37.690Z,57.25
2022-10-09T07:44:05.761Z,57.93
2022-10-09T07:46:34.385Z,58.97
2022-10-09T07:49:03.849Z,59.60
2022-10-09T07:51:33.236Z,60.65
2022-10-09T07:54:04.442Z,61.04
2022-10-09T07:56:35.519Z,66.28
2022-10-09T07:59:06.477Z,59.21
2022-10-09T08:01:36.155Z,51.67
2022-10-09T08:04:05.272Z,52.81
2022-10-09T08:06:33.978Z,54.96
2022-10-09T08:09:03.780Z,57.05
2022-10-09T08:11:32.471Z,58.31
2022-10-09T08:14:00.541Z,58.63
2022-10-09T08:16:29.024Z,59.18
2022-10-09T08:18:59.758Z,61.43
2022-10-09T08:21:28.821Z,61.31
2022-10-09T08:23:58.859Z,66.23
2022-10-09T08:26:31.041Z,60.25
2022-10-09T08:29:02.279Z,51.84
2022-10-09T08:31:31.987Z,52.34
2022-10-09T08:34:03.043Z,54.44
2022-10-09T08:36:32.413Z,56.21
2022-10-09T08:39:00.708Z,57.05
2022-10-09T08:41:46.800Z,57.64
2022-10-09T08:44:42.110Z,58.60
2022-10-09T08:47:24.928Z,59.04
2022-10-09T08:50:11.329Z,61.18
2022-10-09T08:52:51.692Z,63.16
2022-10-09T08:55:26.722Z,61.99
2022-10-09T08:57:56.846Z,53.03
2022-10-09T09:00:29.533Z,52.60
2022-10-09T09:03:16.803Z,54.77
2022-10-09T09:06:05.295Z,55.74
2022-10-09T09:09:01.423Z,57.78
2022-10-09T09:11:54.991Z,59.23
2022-10-09T09:15:02.184Z,61.43
2022-10-09T09:17:36.190Z,67.21
2022-10-09T09:20:10.201Z,58.63
2022-10-09T09:22:43.802Z,52.41
2022-10-09T09:25:20.258Z,52.96
2022-10-09T09:27:49.187Z,54.51
2022-10-09T09:30:26.145Z,55.82
2022-10-09T09:33:01.177Z,57.04
2022-10-09T09:35:56.383Z,59.68
2022-10-09T09:38:24.455Z,58.45
2022-10-09T09:40:53.866Z,58.94
2022-10-09T09:43:24.488Z,59.44
2022-10-09T09:45:55.120Z,59.64
2022-10-09T09:48:42.647Z,60.03
2022-10-09T09:51:34.429Z,60.48
2022-10-09T09:54:15.655Z,66.30
2022-10-09T09:59:39.010Z,50.44
2022-10-09T10:02:14.986Z,50.79
2022-10-09T10:05:17.777Z,52.29
2022-10-09T10:07:50.046Z,53.59
2022-10-09T10:10:25.313Z,54.85
2022-10-09T10:12:59.502Z,54.49
2022-10-09T10:15:32.902Z,55.72
2022-10-09T10:18:06.913Z,58.59
2022-10-09T10:20:56.793Z,57.79
2022-10-09T10:23:36.946Z,57.14
2022-10-09T10:26:11.675Z,60.71
2022-10-09T10:29:23.946Z,61.46
2022-10-09T10:32:04.810Z,61.08
2022-10-09T10:35:17.655Z,61.25
2022-10-09T10:37:57.521Z,67.97
2022-10-09T10:40:34.706Z,59.19
2022-10-09T10:43:11.687Z,48.96
2022-10-09T10:46:10.581Z,49.45
2022-10-09T10:48:48.675Z,52.62
2022-10-09T10:51:35.190Z,52.85
2022-10-09T10:54:18.827Z,54.85
2022-10-09T10:56:53.554Z,54.99
2022-10-09T10:59:47.533Z,55.79
2022-10-09T11:02:42.041Z,56.72
2022-10-09T11:05:48.395Z,57.39
2022-10-09T11:08:48.515Z,57.11
2022-10-09T11:11:25.721Z,57.51
2022-10-09T11:14:09.444Z,56.82
2022-10-09T11:16:58.706Z,59.02
2022-10-09T11:20:08.762Z,59.04
2022-10-09T11:23:08.785Z,58.57
2022-10-09T11:25:41.746Z,58.18
2022-10-09T11:28:24.841Z,58.34
2022-10-09T11:31:12.895Z,59.66
2022-10-09T11:33:51.319Z,59.05
2022-10-09T11:36:33.248Z,59.50
2022-10-09T11:39:03.262Z,58.79
2022-10-09T11:41:32.177Z,59.06
2022-10-09T11:44:12.407Z,58.50
2022-10-09T11:47:04.712Z,58.50
2022-10-09T11:50:01.186Z,58.31
2022-10-09T11:52:52.092Z,58.09
2022-10-09T11:55:26.901Z,57.04
2022-10-09T11:57:55.299Z,57.32
2022-10-09T12:00:33.632Z,57.07
2022-10-09T12:03:05.368Z,57.47
2022-10-09T12:05:36.308Z,57.89
2022-10-09T12:08:12.080Z,57.35
2022-10-09T12:11:08.188Z,57.20
2022-10-09T12:13:39.433Z,57.51
2022-10-09T12:16:11.002Z,57.60
2022-10-09T12:18:45.713Z,57.67
2022-10-09T12:21:25.766Z,57.41
2022-10-09T12:23:54.370Z,57.61
2022-10-09T12:26:24.061Z,57.76
2022-10-09T12:29:02.243Z,58.14
2022-10-09T12:31:35.208Z,57.79
2022-10-09T12:34:16.330Z,57.94
2022-10-09T12:36:44.505Z,57.40
2022-10-09T12:39:23.839Z,57.77
2022-10-09T12:41:55.392Z,57.36
2022-10-09T12:44:33.194Z,57.73
2022-10-09T12:47:14.581Z,57.21
2022-10-09T12:49:42.557Z,57.31
2022-10-09T12:52:19.525Z,57.20
2022-10-09T12:54:47.474Z,57.02
2022-10-09T12:57:16.869Z,57.16
2022-10-09T12:59:47.222Z,56.68
2022-10-09T13:02:16.859Z,56.23
2022-10-09T13:05:00.448Z,56.13
2022-10-09T13:07:30.586Z,56.00
2022-10-09T13:10:09.099Z,55.60
2022-10-09T13:12:38.092Z,56.25
2022-10-09T13:15:27.055Z,55.79
2022-10-09T13:17:55.227Z,55.61
2022-10-09T13:20:30.576Z,55.52
2022-10-09T13:23:04.273Z,55.50
2022-10-09T13:25:38.078Z,55.20
2022-10-09T13:28:06.596Z,54.80
2022-10-09T13:30:34.774Z,55.00
2022-10-09T13:33:02.906Z,55.16
2022-10-09T13:35:30.980Z,55.52
2022-10-09T13:37:59.048Z,55.50
2022-10-09T13:40:27.121Z,55.11
2022-10-09T13:43:00.519Z,54.90
2022-10-09T13:45:29.084Z,54.17
2022-10-09T13:47:57.069Z,54.85
2022-10-09T13:50:26.173Z,53.92
2022-10-09T13:52:54.235Z,54.26
2022-10-09T13:55:22.307Z,54.71
2022-10-09T13:57:50.520Z,54.73
2022-10-09T14:00:19.064Z,54.79
2022-10-09T14:02:47.136Z,54.12
2022-10-09T14:05:15.310Z,54.37
2022-10-09T14:07:43.380Z,54.76
2022-10-09T14:10:11.452Z,54.53
2022-10-09T14:12:40.044Z,53.88
2022-10-09T14:15:08.452Z,54.19
2022-10-09T14:17:36.588Z,53.71
2022-10-09T14:20:06.711Z,54.03
2022-10-09T14:22:34.778Z,53.66
2022-10-09T14:25:03.260Z,54.36
2022-10-09T14:27:31.401Z,53.79
2022-10-09T14:29:59.607Z,54.01
2022-10-09T14:32:27.575Z,53.36
2022-10-09T14:34:55.756Z,53.52
2022-10-09T14:37:40.441Z,53.77
2022-10-09T14:40:11.329Z,53.25
2022-10-09T14:42:39.899Z,53.54
2022-10-09T14:45:09.626Z,53.33
2022-10-09T14:47:37.713Z,54.08
2022-10-09T14:50:06.323Z,53.92
2022-10-09T14:52:34.367Z,52.95
2022-10-09T14:55:02.540Z,53.69
2022-10-09T14:57:35.199Z,53.40
2022-10-09T15:00:05.710Z,53.88
2022-10-09T15:02:34.100Z,53.57
2022-10-09T15:05:02.201Z,53.80
2022-10-09T15:07:31.499Z,54.22
2022-10-09T15:09:59.571Z,54.11
2022-10-09T15:12:27.539Z,54.03
2022-10-09T15:14:56.028Z,53.89
2022-10-09T15:17:23.994Z,54.12
2022-10-09T15:19:54.108Z,54.22
2022-10-09T15:22:22.187Z,54.12
2022-10-09T15:24:50.149Z,54.11
2022-10-09T15:27:18.118Z,54.08
2022-10-09T15:29:46.088Z,54.11
2022-10-09T15:32:14.159Z,54.23
2022-10-09T15:34:42.158Z,54.48
2022-10-09T15:37:10.199Z,54.49
2022-10-09T15:39:38.373Z,54.55
2022-10-09T15:42:07.161Z,54.53
2022-10-09T15:44:35.232Z,54.86
2022-10-09T15:47:03.611Z,54.77
2022-10-09T15:49:31.680Z,54.87
2022-10-09T15:51:59.957Z,55.58
2022-10-09T15:54:28.029Z,57.12
2022-10-09T15:56:56.100Z,57.36
2022-10-09T15:59:25.912Z,57.96
2022-10-09T16:01:53.904Z,58.55
2022-10-09T16:04:22.059Z,59.15
2022-10-09T16:06:50.129Z,59.31
2022-10-09T16:09:18.198Z,59.63
2022-10-09T16:11:46.270Z,59.96
2022-10-09T16:14:14.249Z,59.63
2022-10-09T16:16:44.256Z,59.55
2022-10-09T16:19:12.225Z,60.19
2022-10-09T16:21:40.295Z,60.02
2022-10-09T16:26:54.054Z,60.76
2022-10-09T16:29:22.123Z,61.25
2022-10-09T16:31:50.528Z,61.89
2022-10-09T16:34:18.892Z,66.44
2022-10-09T16:36:46.850Z,61.88
2022-10-09T16:39:14.921Z,51.95
2022-10-09T16:41:43.198Z,51.56
2022-10-09T16:44:14.324Z,53.22
2022-10-09T16:46:42.723Z,54.94
2022-10-09T16:49:20.053Z,55.92
2022-10-09T16:51:50.952Z,56.46
2022-10-09T16:54:19.130Z,57.21
2022-10-09T16:56:47.191Z,57.66
2022-10-09T16:59:15.568Z,57.86
2022-10-09T17:01:45.381Z,58.38
2022-10-09T17:04:15.028Z,59.15
2022-10-09T17:06:44.784Z,59.71
2022-10-09T17:09:14.448Z,59.96
2022-10-09T17:11:43.417Z,60.43
2022-10-09T17:14:13.543Z,60.96
2022-10-09T17:16:43.258Z,61.49
2022-10-09T17:19:11.712Z,61.75
2022-10-09T17:21:39.781Z,62.12
2022-10-09T17:24:08.364Z,67.36
2022-10-09T17:26:36.444Z,60.88
2022-10-09T17:29:04.926Z,51.94
2022-10-09T17:31:34.218Z,52.57
2022-10-09T17:34:04.340Z,54.59
2022-10-09T17:36:36.401Z,55.94
2022-10-09T17:39:07.323Z,57.13
2022-10-09T17:41:35.620Z,58.17
2022-10-09T17:44:04.815Z,58.50
2022-10-09T17:46:32.987Z,58.92
2022-10-09T17:49:01.365Z,59.38
2022-10-09T17:51:32.919Z,60.13
2022-10-09T17:54:05.932Z,60.52
2022-10-09T17:56:37.561Z,60.74
2022-10-09T17:59:06.438Z,61.02
2022-10-09T18:01:34.757Z,61.62
2022-10-09T18:04:03.311Z,62.10
2022-10-09T18:06:33.228Z,66.60
2022-10-09T18:09:02.612Z,60.79
2022-10-09T18:11:30.912Z,51.89
2022-10-09T18:14:01.512Z,52.08
2022-10-09T18:16:37.156Z,54.02
2022-10-09T18:19:13.251Z,55.45
2022-10-09T18:21:45.790Z,56.64
2022-10-09T18:24:15.015Z,57.43
2022-10-09T18:26:43.866Z,58.12
2022-10-09T18:29:12.903Z,58.75
2022-10-09T18:31:42.830Z,59.35
2022-10-09T18:34:11.809Z,59.85
2022-10-09T18:36:39.889Z,60.25
2022-10-09T18:39:14.862Z,60.59
2022-10-09T18:41:44.826Z,60.83
2022-10-09T18:44:18.529Z,61.26
2022-10-09T18:46:56.741Z,61.73
2022-10-09T18:49:29.738Z,61.98
2022-10-09T18:52:00.524Z,67.13
2022-10-09T18:54:30.651Z,60.64
2022-10-09T18:56:58.959Z,51.47
2022-10-09T18:59:27.032Z,51.75
2022-10-09T19:01:55.102Z,53.64
2022-10-09T19:04:24.303Z,55.25
2022-10-09T19:06:54.817Z,56.38
2022-10-09T19:09:24.544Z,57.43
2022-10-09T19:11:55.280Z,58.11
2022-10-09T19:14:25.768Z,58.92
2022-10-09T19:16:54.385Z,59.55
2022-10-09T19:19:23.457Z,60.05
2022-10-09T19:21:52.678Z,60.38
2022-10-09T19:24:21.929Z,61.37
2022-10-09T19:26:50.664Z,61.66
2022-10-09T19:29:18.841Z,61.56
2022-10-09T19:31:50.629Z,62.04
2022-10-09T19:34:20.168Z,67.27
2022-10-09T19:36:49.803Z,60.56
2022-10-09T19:39:20.152Z,51.78
2022-10-09T19:41:51.228Z,52.52
2022-10-09T19:44:20.046Z,54.89
2022-10-09T19:46:48.651Z,56.97
2022-10-09T19:49:17.030Z,58.58
2022-10-09T19:51:45.989Z,59.72
2022-10-09T19:54:14.093Z,60.84
2022-10-09T19:56:42.267Z,61.58
2022-10-09T19:59:10.952Z,62.38
2022-10-09T20:01:40.576Z,67.49
2022-10-09T20:04:10.997Z,60.25
2022-10-09T20:06:50.247Z,52.08
2022-10-09T20:09:28.297Z,53.08
2022-10-09T20:12:03.298Z,55.37
2022-10-09T20:14:40.847Z,57.06
2022-10-09T20:17:15.414Z,58.13
2022-10-09T20:19:47.229Z,59.24
2022-10-09T20:22:20.679Z,60.03
2022-10-09T20:25:01.418Z,60.50
2022-10-09T20:27:37.003Z,61.33
2022-10-09T20:30:12.742Z,62.06
2022-10-09T20:32:41.489Z,66.91
2022-10-09T20:35:10.263Z,59.40
2022-10-09T20:37:38.347Z,51.56
2022-10-09T20:40:07.238Z,52.78
2022-10-09T20:42:35.513Z,54.96
2022-10-09T20:45:03.892Z,56.72
2022-10-09T20:47:31.964Z,58.12
2022-10-09T20:50:00.136Z,59.07
2022-10-09T20:52:28.178Z,60.11
2022-10-09T20:54:56.586Z,60.74
2022-10-09T20:57:24.762Z,61.54
2022-10-09T20:59:52.837Z,62.06
2022-10-09T21:02:20.902Z,66.58
2022-10-09T21:04:48.974Z,59.97
2022-10-09T21:07:16.948Z,52.13
2022-10-09T21:09:45.016Z,53.03
2022-10-09T21:12:13.086Z,55.48
2022-10-09T21:14:41.054Z,57.48
2022-10-09T21:17:09.024Z,59.04
2022-10-09T21:19:36.993Z,60.10
2022-10-09T21:22:08.214Z,61.08
2022-10-09T21:24:44.407Z,61.90
2022-10-09T21:27:12.681Z,66.04
2022-10-09T21:29:41.258Z,59.35
2022-10-09T21:32:09.739Z,52.27
2022-10-09T21:34:37.811Z,53.72
2022-10-09T21:37:21.064Z,56.13
2022-10-09T21:39:50.337Z,57.95
2022-10-09T21:42:18.409Z,59.14
2022-10-09T21:44:46.685Z,59.98
2022-10-09T21:47:18.956Z,60.95
2022-10-09T21:49:47.334Z,61.66
2022-10-09T21:52:15.713Z,65.47
2022-10-09T21:54:45.972Z,60.59
2022-10-09T21:57:15.235Z,52.03
2022-10-09T21:59:43.305Z,52.47
2022-10-09T22:02:11.275Z,54.94
2022-10-09T22:04:39.351Z,56.61
2022-10-09T22:07:07.419Z,57.83
2022-10-09T22:09:35.592Z,58.81
2022-10-09T22:12:04.063Z,59.51
2022-10-09T22:14:32.348Z,60.07
2022-10-09T22:17:00.422Z,61.18
2022-10-09T22:19:28.518Z,61.54
2022-10-09T22:21:56.916Z,62.03
2022-10-09T22:24:29.044Z,67.05
2022-10-09T22:26:58.749Z,59.94
2022-10-09T22:29:28.048Z,51.74
2022-10-09T22:31:56.221Z,52.68
2022-10-09T22:34:24.810Z,54.97
2022-10-09T22:36:52.877Z,56.85
2022-10-09T22:39:21.154Z,58.09
2022-10-09T22:41:49.431Z,59.06
2022-10-09T22:44:17.810Z,59.93
2022-10-09T22:46:49.051Z,60.62
2022-10-09T22:49:18.404Z,61.36
2022-10-09T22:51:46.730Z,61.88
2022-10-09T22:54:15.314Z,67.25
2022-10-09T22:56:45.535Z,60.45
2022-10-09T22:59:15.727Z,51.83
2022-10-09T23:01:53.737Z,52.72
2022-10-09T23:04:23.573Z,55.11
2022-10-09T23:06:54.414Z,56.77
2022-10-09T23:09:25.042Z,58.18
2022-10-09T23:11:54.137Z,59.32
2022-10-09T23:14:22.108Z,60.16
2022-10-09T23:16:50.715Z,60.79
2022-10-09T23:19:19.093Z,61.45
2022-10-09T23:21:47.534Z,61.92
2022-10-09T23:24:17.860Z,66.80
2022-10-09T23:26:46.963Z,59.85
2022-10-09T23:29:17.910Z,51.65
2022-10-09T23:31:46.407Z,52.81
2022-10-09T23:34:14.777Z,54.74
2022-10-09T23:36:42.735Z,56.25
2022-10-09T23:39:10.803Z,57.45
2022-10-09T23:41:39.185Z,58.57
2022-10-09T23:44:07.156Z,59.81
2022-10-09T23:46:37.694Z,60.64
2022-10-09T23:49:06.605Z,61.43
2022-10-09T23:51:34.849Z,62.13
2022-10-09T23:54:03.232Z,66.53
2022-10-09T23:56:34.478Z,59.05
2022-10-09T23:59:08.313Z,50.72
